sensor_id;sensor_type;location;lat;lon;timestamp;P1;durP1;ratioP1;P2;durP2;ratioP2
57345;SDS011;43181;50.974;18.244;2023-10-13T00:01:35;1.30;;;1.20;;
57345;SDS011;43181;50.974;18.244;2023-10-13T00:04:03;2.50;;;2.30;;
57345;SDS011;43181;50.974;18.244;2023-10-13T00:06:30;4.00;;;2.20;;
57345;SDS011;43181;50.974;18.244;2023-10-13T00:08:56;2.70;;;2.00;;
57345;SDS011;43181;50.974;18.244;2023-10-13T00:11:22;3.80;;;2.00;;
57345;SDS011;43181;50.974;18.244;2023-10-13T00:13:47;2.00;;;1.50;;
57345;SDS011;43181;50.974;18.244;2023-10-13T00:16:16;1.90;;;1.20;;
57345;SDS011;43181;50.974;18.244;2023-10-13T00:18:46;2.10;;;1.90;;
57345;SDS011;43181;50.974;18.244;2023-10-13T00:21:13;4.80;;;1.80;;
57345;SDS011;43181;50.974;18.244;2023-10-13T00:23:44;2.10;;;0.90;;
57345;SDS011;43181;50.974;18.244;2023-10-13T00:26:21;1.90;;;1.50;;
57345;SDS011;43181;50.974;18.244;2023-10-13T00:28:54;3.30;;;2.70;;
57345;SDS011;43181;50.974;18.244;2023-10-13T00:31:33;1.50;;;1.30;;
57345;SDS011;43181;50.974;18.244;2023-10-13T00:34:01;1.20;;;1.10;;
57345;SDS011;43181;50.974;18.244;2023-10-13T00:36:44;2.20;;;2.00;;
57345;SDS011;43181;50.974;18.244;2023-10-13T00:39:28;3.00;;;1.90;;
57345;SDS011;43181;50.974;18.244;2023-10-13T00:41:54;2.10;;;1.90;;
57345;SDS011;43181;50.974;18.244;2023-10-13T00:44:24;1.90;;;1.50;;
57345;SDS011;43181;50.974;18.244;2023-10-13T00:47:09;2.70;;;1.40;;
57345;SDS011;43181;50.974;18.244;2023-10-13T00:49:44;1.40;;;1.30;;
57345;SDS011;43181;50.974;18.244;2023-10-13T00:52:12;4.50;;;1.70;;
57345;SDS011;43181;50.974;18.244;2023-10-13T00:54:41;1.20;;;1.00;;
57345;SDS011;43181;50.974;18.244;2023-10-13T00:57:14;1.60;;;1.40;;
57345;SDS011;43181;50.974;18.244;2023-10-13T00:59:52;1.40;;;0.70;;
57345;SDS011;43181;50.974;18.244;2023-10-13T01:02:22;1.10;;;0.90;;
57345;SDS011;43181;50.974;18.244;2023-10-13T01:05:07;2.00;;;1.50;;
57345;SDS011;43181;50.974;18.244;2023-10-13T01:07:44;3.80;;;2.30;;
57345;SDS011;43181;50.974;18.244;2023-10-13T01:10:15;3.40;;;1.80;;
57345;SDS011;43181;50.974;18.244;2023-10-13T01:12:41;2.60;;;1.40;;
57345;SDS011;43181;50.974;18.244;2023-10-13T01:15:11;4.10;;;1.30;;
57345;SDS011;43181;50.974;18.244;2023-10-13T01:17:42;2.20;;;1.80;;
57345;SDS011;43181;50.974;18.244;2023-10-13T01:20:11;1.30;;;1.20;;
57345;SDS011;43181;50.974;18.244;2023-10-13T01:22:50;5.30;;;2.60;;
57345;SDS011;43181;50.974;18.244;2023-10-13T01:25:22;8.20;;;2.10;;
57345;SDS011;43181;50.974;18.244;2023-10-13T01:27:53;2.10;;;1.40;;
57345;SDS011;43181;50.974;18.244;2023-10-13T01:30:19;1.50;;;1.40;;
57345;SDS011;43181;50.974;18.244;2023-10-13T01:32:52;1.70;;;1.50;;
57345;SDS011;43181;50.974;18.244;2023-10-13T01:35:25;2.80;;;1.10;;
57345;SDS011;43181;50.974;18.244;2023-10-13T01:38:01;4.80;;;2.30;;
57345;SDS011;43181;50.974;18.244;2023-10-13T01:40:27;2.70;;;1.70;;
57345;SDS011;43181;50.974;18.244;2023-10-13T01:42:58;3.00;;;2.50;;
57345;SDS011;43181;50.974;18.244;2023-10-13T01:45:24;1.20;;;1.10;;
57345;SDS011;43181;50.974;18.244;2023-10-13T01:47:54;7.00;;;1.60;;
57345;SDS011;43181;50.974;18.244;2023-10-13T01:50:21;2.60;;;1.20;;
57345;SDS011;43181;50.974;18.244;2023-10-13T01:52:54;1.20;;;0.90;;
57345;SDS011;43181;50.974;18.244;2023-10-13T01:55:38;6.30;;;1.10;;
57345;SDS011;43181;50.974;18.244;2023-10-13T01:58:09;3.10;;;1.70;;
57345;SDS011;43181;50.974;18.244;2023-10-13T02:00:42;1.70;;;1.60;;
57345;SDS011;43181;50.974;18.244;2023-10-13T02:03:09;4.10;;;1.70;;
57345;SDS011;43181;50.974;18.244;2023-10-13T02:05:45;2.60;;;1.70;;
57345;SDS011;43181;50.974;18.244;2023-10-13T02:08:16;2.70;;;1.40;;
57345;SDS011;43181;50.974;18.244;2023-10-13T02:10:53;2.00;;;1.20;;
57345;SDS011;43181;50.974;18.244;2023-10-13T02:13:20;2.40;;;2.20;;
57345;SDS011;43181;50.974;18.244;2023-10-13T02:15:47;1.30;;;1.20;;
57345;SDS011;43181;50.974;18.244;2023-10-13T02:18:17;3.60;;;2.10;;
57345;SDS011;43181;50.974;18.244;2023-10-13T02:20:53;1.70;;;1.60;;
57345;SDS011;43181;50.974;18.244;2023-10-13T02:23:23;2.20;;;1.60;;
57345;SDS011;43181;50.974;18.244;2023-10-13T02:25:55;5.60;;;2.40;;
57345;SDS011;43181;50.974;18.244;2023-10-13T02:28:35;3.10;;;1.40;;
57345;SDS011;43181;50.974;18.244;2023-10-13T02:31:01;5.50;;;1.90;;
57345;SDS011;43181;50.974;18.244;2023-10-13T02:33:28;2.30;;;1.60;;
57345;SDS011;43181;50.974;18.244;2023-10-13T02:35:59;1.00;;;1.00;;
57345;SDS011;43181;50.974;18.244;2023-10-13T02:38:29;3.30;;;1.40;;
57345;SDS011;43181;50.974;18.244;2023-10-13T02:41:01;2.60;;;0.90;;
57345;SDS011;43181;50.974;18.244;2023-10-13T02:45:59;2.20;;;1.00;;
57345;SDS011;43181;50.974;18.244;2023-10-13T02:48:25;1.20;;;0.60;;
57345;SDS011;43181;50.974;18.244;2023-10-13T02:50:56;3.20;;;1.60;;
57345;SDS011;43181;50.974;18.244;2023-10-13T02:53:27;2.00;;;1.70;;
57345;SDS011;43181;50.974;18.244;2023-10-13T02:55:54;1.40;;;1.30;;
57345;SDS011;43181;50.974;18.244;2023-10-13T02:58:24;4.00;;;1.00;;
57345;SDS011;43181;50.974;18.244;2023-10-13T03:01:07;5.20;;;2.10;;
57345;SDS011;43181;50.974;18.244;2023-10-13T03:03:46;1.60;;;1.50;;
57345;SDS011;43181;50.974;18.244;2023-10-13T03:06:15;0.60;;;0.60;;
57345;SDS011;43181;50.974;18.244;2023-10-13T03:08:42;3.00;;;2.10;;
57345;SDS011;43181;50.974;18.244;2023-10-13T03:11:11;2.90;;;1.20;;
57345;SDS011;43181;50.974;18.244;2023-10-13T03:13:39;1.30;;;1.00;;
57345;SDS011;43181;50.974;18.244;2023-10-13T03:16:11;1.70;;;1.10;;
57345;SDS011;43181;50.974;18.244;2023-10-13T03:18:41;1.70;;;1.00;;
57345;SDS011;43181;50.974;18.244;2023-10-13T03:21:17;6.20;;;2.30;;
57345;SDS011;43181;50.974;18.244;2023-10-13T03:23:57;2.30;;;1.50;;
57345;SDS011;43181;50.974;18.244;2023-10-13T03:26:38;3.20;;;2.90;;
57345;SDS011;43181;50.974;18.244;2023-10-13T03:29:10;1.30;;;0.90;;
57345;SDS011;43181;50.974;18.244;2023-10-13T03:31:39;1.10;;;1.00;;
57345;SDS011;43181;50.974;18.244;2023-10-13T03:34:05;3.30;;;1.30;;
57345;SDS011;43181;50.974;18.244;2023-10-13T03:36:35;6.60;;;2.00;;
57345;SDS011;43181;50.974;18.244;2023-10-13T03:39:21;3.30;;;2.60;;
57345;SDS011;43181;50.974;18.244;2023-10-13T03:41:53;1.10;;;1.00;;
57345;SDS011;43181;50.974;18.244;2023-10-13T03:44:19;9.20;;;1.80;;
57345;SDS011;43181;50.974;18.244;2023-10-13T03:46:45;5.20;;;2.60;;
57345;SDS011;43181;50.974;18.244;2023-10-13T03:49:14;3.60;;;1.50;;
57345;SDS011;43181;50.974;18.244;2023-10-13T03:51:45;3.40;;;1.80;;
57345;SDS011;43181;50.974;18.244;2023-10-13T03:54:13;6.10;;;1.40;;
57345;SDS011;43181;50.974;18.244;2023-10-13T03:56:42;1.60;;;1.20;;
57345;SDS011;43181;50.974;18.244;2023-10-13T03:59:10;5.90;;;2.10;;
57345;SDS011;43181;50.974;18.244;2023-10-13T04:01:42;3.10;;;2.00;;
57345;SDS011;43181;50.974;18.244;2023-10-13T04:04:17;1.80;;;1.70;;
57345;SDS011;43181;50.974;18.244;2023-10-13T04:07:03;3.00;;;1.70;;
57345;SDS011;43181;50.974;18.244;2023-10-13T04:12:13;1.60;;;1.50;;
57345;SDS011;43181;50.974;18.244;2023-10-13T04:14:42;0.70;;;0.70;;
57345;SDS011;43181;50.974;18.244;2023-10-13T04:17:27;7.90;;;3.00;;
57345;SDS011;43181;50.974;18.244;2023-10-13T04:19:54;2.70;;;2.00;;
57345;SDS011;43181;50.974;18.244;2023-10-13T04:22:38;2.30;;;1.80;;
57345;SDS011;43181;50.974;18.244;2023-10-13T04:25:18;1.70;;;1.60;;
57345;SDS011;43181;50.974;18.244;2023-10-13T04:30:44;1.30;;;1.20;;
57345;SDS011;43181;50.974;18.244;2023-10-13T04:33:23;7.30;;;2.30;;
57345;SDS011;43181;50.974;18.244;2023-10-13T04:36:12;1.50;;;1.40;;
57345;SDS011;43181;50.974;18.244;2023-10-13T04:38:47;2.20;;;1.50;;
57345;SDS011;43181;50.974;18.244;2023-10-13T04:41:35;3.30;;;2.90;;
57345;SDS011;43181;50.974;18.244;2023-10-13T04:44:09;2.80;;;1.50;;
57345;SDS011;43181;50.974;18.244;2023-10-13T04:46:56;2.30;;;2.20;;
57345;SDS011;43181;50.974;18.244;2023-10-13T04:49:25;2.10;;;1.60;;
57345;SDS011;43181;50.974;18.244;2023-10-13T04:52:01;2.40;;;0.90;;
57345;SDS011;43181;50.974;18.244;2023-10-13T04:54:48;2.70;;;1.60;;
57345;SDS011;43181;50.974;18.244;2023-10-13T04:57:17;1.20;;;1.20;;
57345;SDS011;43181;50.974;18.244;2023-10-13T04:59:56;1.80;;;1.60;;
57345;SDS011;43181;50.974;18.244;2023-10-13T05:02:43;4.80;;;3.10;;
57345;SDS011;43181;50.974;18.244;2023-10-13T05:05:41;3.10;;;1.60;;
57345;SDS011;43181;50.974;18.244;2023-10-13T05:08:19;8.80;;;2.60;;
57345;SDS011;43181;50.974;18.244;2023-10-13T05:11:03;1.60;;;1.50;;
57345;SDS011;43181;50.974;18.244;2023-10-13T05:13:49;0.90;;;0.90;;
57345;SDS011;43181;50.974;18.244;2023-10-13T05:16:33;3.00;;;1.70;;
57345;SDS011;43181;50.974;18.244;2023-10-13T05:19:17;2.40;;;1.60;;
57345;SDS011;43181;50.974;18.244;2023-10-13T05:22:01;2.80;;;1.60;;
57345;SDS011;43181;50.974;18.244;2023-10-13T05:24:45;5.60;;;2.20;;
57345;SDS011;43181;50.974;18.244;2023-10-13T05:27:29;2.80;;;2.40;;
57345;SDS011;43181;50.974;18.244;2023-10-13T05:30:14;5.90;;;2.20;;
57345;SDS011;43181;50.974;18.244;2023-10-13T05:32:58;5.70;;;1.70;;
57345;SDS011;43181;50.974;18.244;2023-10-13T05:35:42;4.90;;;2.80;;
57345;SDS011;43181;50.974;18.244;2023-10-13T05:38:26;3.40;;;2.70;;
57345;SDS011;43181;50.974;18.244;2023-10-13T05:41:11;5.10;;;2.10;;
57345;SDS011;43181;50.974;18.244;2023-10-13T05:43:57;1.60;;;1.50;;
57345;SDS011;43181;50.974;18.244;2023-10-13T05:46:42;4.00;;;2.50;;
57345;SDS011;43181;50.974;18.244;2023-10-13T05:49:26;5.40;;;2.00;;
57345;SDS011;43181;50.974;18.244;2023-10-13T05:52:10;4.10;;;2.40;;
57345;SDS011;43181;50.974;18.244;2023-10-13T05:54:47;2.20;;;2.00;;
57345;SDS011;43181;50.974;18.244;2023-10-13T05:57:31;4.50;;;2.70;;
57345;SDS011;43181;50.974;18.244;2023-10-13T06:00:16;8.00;;;3.10;;
57345;SDS011;43181;50.974;18.244;2023-10-13T06:03:00;4.30;;;2.80;;
57345;SDS011;43181;50.974;18.244;2023-10-13T06:05:45;4.20;;;2.90;;
57345;SDS011;43181;50.974;18.244;2023-10-13T06:08:29;3.20;;;1.50;;
57345;SDS011;43181;50.974;18.244;2023-10-13T06:11:13;5.80;;;2.70;;
57345;SDS011;43181;50.974;18.244;2023-10-13T06:13:57;3.20;;;1.80;;
57345;SDS011;43181;50.974;18.244;2023-10-13T06:16:42;5.70;;;2.70;;
57345;SDS011;43181;50.974;18.244;2023-10-13T06:19:26;9.00;;;2.30;;
57345;SDS011;43181;50.974;18.244;2023-10-13T06:22:10;2.40;;;2.10;;
57345;SDS011;43181;50.974;18.244;2023-10-13T06:24:54;4.80;;;2.10;;
57345;SDS011;43181;50.974;18.244;2023-10-13T06:27:38;2.70;;;2.20;;
57345;SDS011;43181;50.974;18.244;2023-10-13T06:30:23;8.80;;;2.60;;
57345;SDS011;43181;50.974;18.244;2023-10-13T06:32:49;2.50;;;2.10;;
57345;SDS011;43181;50.974;18.244;2023-10-13T06:35:16;6.20;;;2.70;;
57345;SDS011;43181;50.974;18.244;2023-10-13T06:37:48;3.60;;;2.70;;
57345;SDS011;43181;50.974;18.244;2023-10-13T06:40:14;3.40;;;2.50;;
57345;SDS011;43181;50.974;18.244;2023-10-13T06:42:58;7.50;;;2.90;;
57345;SDS011;43181;50.974;18.244;2023-10-13T06:45:38;10.20;;;2.40;;
57345;SDS011;43181;50.974;18.244;2023-10-13T06:48:07;7.40;;;2.60;;
57345;SDS011;43181;50.974;18.244;2023-10-13T06:50:37;7.40;;;1.40;;
57345;SDS011;43181;50.974;18.244;2023-10-13T06:53:07;2.40;;;2.00;;
57345;SDS011;43181;50.974;18.244;2023-10-13T06:55:36;5.40;;;2.60;;
57345;SDS011;43181;50.974;18.244;2023-10-13T06:58:07;7.60;;;2.00;;
57345;SDS011;43181;50.974;18.244;2023-10-13T07:00:41;2.80;;;1.50;;
57345;SDS011;43181;50.974;18.244;2023-10-13T07:03:19;3.20;;;1.60;;
57345;SDS011;43181;50.974;18.244;2023-10-13T07:05:45;3.80;;;2.10;;
57345;SDS011;43181;50.974;18.244;2023-10-13T07:08:14;6.90;;;1.70;;
57345;SDS011;43181;50.974;18.244;2023-10-13T07:10:55;5.50;;;1.90;;
57345;SDS011;43181;50.974;18.244;2023-10-13T07:13:31;3.60;;;2.30;;
57345;SDS011;43181;50.974;18.244;2023-10-13T07:16:02;4.20;;;1.70;;
57345;SDS011;43181;50.974;18.244;2023-10-13T07:18:33;3.80;;;2.90;;
57345;SDS011;43181;50.974;18.244;2023-10-13T07:21:08;3.70;;;2.30;;
57345;SDS011;43181;50.974;18.244;2023-10-13T07:23:37;6.20;;;2.60;;
57345;SDS011;43181;50.974;18.244;2023-10-13T07:26:04;7.70;;;2.80;;
57345;SDS011;43181;50.974;18.244;2023-10-13T07:28:34;4.30;;;2.40;;
57345;SDS011;43181;50.974;18.244;2023-10-13T07:31:12;5.80;;;3.00;;
57345;SDS011;43181;50.974;18.244;2023-10-13T07:33:40;9.00;;;2.60;;
57345;SDS011;43181;50.974;18.244;2023-10-13T07:36:09;3.70;;;2.30;;
57345;SDS011;43181;50.974;18.244;2023-10-13T07:38:47;4.30;;;2.40;;
57345;SDS011;43181;50.974;18.244;2023-10-13T07:41:14;3.50;;;2.30;;
57345;SDS011;43181;50.974;18.244;2023-10-13T07:43:47;4.20;;;2.10;;
57345;SDS011;43181;50.974;18.244;2023-10-13T07:46:13;8.30;;;3.00;;
57345;SDS011;43181;50.974;18.244;2023-10-13T07:48:39;4.10;;;1.80;;
57345;SDS011;43181;50.974;18.244;2023-10-13T07:51:11;11.10;;;2.60;;
57345;SDS011;43181;50.974;18.244;2023-10-13T07:53:41;9.20;;;3.40;;
57345;SDS011;43181;50.974;18.244;2023-10-13T07:56:11;4.20;;;2.10;;
57345;SDS011;43181;50.974;18.244;2023-10-13T07:58:37;5.90;;;2.00;;
57345;SDS011;43181;50.974;18.244;2023-10-13T08:01:27;9.70;;;2.50;;
57345;SDS011;43181;50.974;18.244;2023-10-13T08:03:53;4.50;;;2.10;;
57345;SDS011;43181;50.974;18.244;2023-10-13T08:06:37;3.80;;;1.70;;
57345;SDS011;43181;50.974;18.244;2023-10-13T08:09:05;3.30;;;1.60;;
57345;SDS011;43181;50.974;18.244;2023-10-13T08:11:55;4.60;;;2.40;;
57345;SDS011;43181;50.974;18.244;2023-10-13T08:14:21;1.90;;;1.30;;
57345;SDS011;43181;50.974;18.244;2023-10-13T08:16:58;6.60;;;2.50;;
57345;SDS011;43181;50.974;18.244;2023-10-13T08:19:32;4.90;;;2.00;;
57345;SDS011;43181;50.974;18.244;2023-10-13T08:22:10;3.80;;;1.20;;
57345;SDS011;43181;50.974;18.244;2023-10-13T08:24:40;1.70;;;1.50;;
57345;SDS011;43181;50.974;18.244;2023-10-13T08:27:06;6.70;;;2.50;;
57345;SDS011;43181;50.974;18.244;2023-10-13T08:29:45;3.30;;;2.40;;
57345;SDS011;43181;50.974;18.244;2023-10-13T08:32:27;3.30;;;2.00;;
57345;SDS011;43181;50.974;18.244;2023-10-13T08:35:00;5.20;;;2.20;;
57345;SDS011;43181;50.974;18.244;2023-10-13T08:37:30;2.90;;;1.50;;
57345;SDS011;43181;50.974;18.244;2023-10-13T08:40:00;2.60;;;1.90;;
57345;SDS011;43181;50.974;18.244;2023-10-13T08:42:30;3.50;;;2.10;;
57345;SDS011;43181;50.974;18.244;2023-10-13T08:47:51;2.80;;;1.80;;
57345;SDS011;43181;50.974;18.244;2023-10-13T08:50:42;4.50;;;1.50;;
57345;SDS011;43181;50.974;18.244;2023-10-13T08:53:21;2.30;;;1.60;;
57345;SDS011;43181;50.974;18.244;2023-10-13T08:55:58;5.50;;;1.90;;
57345;SDS011;43181;50.974;18.244;2023-10-13T08:58:42;5.90;;;2.70;;
57345;SDS011;43181;50.974;18.244;2023-10-13T09:01:32;4.70;;;2.20;;
57345;SDS011;43181;50.974;18.244;2023-10-13T09:04:19;3.70;;;2.00;;
57345;SDS011;43181;50.974;18.244;2023-10-13T09:09:26;4.60;;;1.60;;
57345;SDS011;43181;50.974;18.244;2023-10-13T09:11:53;6.20;;;2.20;;
57345;SDS011;43181;50.974;18.244;2023-10-13T09:14:33;5.10;;;2.10;;
57345;SDS011;43181;50.974;18.244;2023-10-13T09:17:22;4.30;;;2.10;;
57345;SDS011;43181;50.974;18.244;2023-10-13T09:20:02;5.00;;;1.80;;
57345;SDS011;43181;50.974;18.244;2023-10-13T09:22:49;2.30;;;1.50;;
57345;SDS011;43181;50.974;18.244;2023-10-13T09:25:28;4.40;;;2.20;;
57345;SDS011;43181;50.974;18.244;2023-10-13T09:27:59;7.00;;;1.50;;
57345;SDS011;43181;50.974;18.244;2023-10-13T09:30:42;4.10;;;2.00;;
57345;SDS011;43181;50.974;18.244;2023-10-13T09:33:11;4.90;;;1.80;;
57345;SDS011;43181;50.974;18.244;2023-10-13T09:35:46;6.90;;;1.90;;
57345;SDS011;43181;50.974;18.244;2023-10-13T09:38:16;2.60;;;1.40;;
57345;SDS011;43181;50.974;18.244;2023-10-13T09:40:42;4.40;;;1.50;;
57345;SDS011;43181;50.974;18.244;2023-10-13T09:43:17;6.40;;;1.90;;
57345;SDS011;43181;50.974;18.244;2023-10-13T09:45:48;5.70;;;2.20;;
57345;SDS011;43181;50.974;18.244;2023-10-13T09:48:43;2.20;;;1.30;;
57345;SDS011;43181;50.974;18.244;2023-10-13T09:51:29;7.20;;;2.40;;
57345;SDS011;43181;50.974;18.244;2023-10-13T09:54:06;3.30;;;1.40;;
57345;SDS011;43181;50.974;18.244;2023-10-13T09:57:09;4.20;;;2.10;;
57345;SDS011;43181;50.974;18.244;2023-10-13T09:59:44;4.80;;;2.20;;
57345;SDS011;43181;50.974;18.244;2023-10-13T10:02:17;5.10;;;2.50;;
57345;SDS011;43181;50.974;18.244;2023-10-13T10:04:56;4.20;;;2.10;;
57345;SDS011;43181;50.974;18.244;2023-10-13T10:07:40;3.80;;;1.50;;
57345;SDS011;43181;50.974;18.244;2023-10-13T10:10:09;4.20;;;1.60;;
57345;SDS011;43181;50.974;18.244;2023-10-13T10:12:42;8.10;;;1.30;;
57345;SDS011;43181;50.974;18.244;2023-10-13T10:18:01;2.00;;;1.50;;
57345;SDS011;43181;50.974;18.244;2023-10-13T10:20:31;2.40;;;1.80;;
57345;SDS011;43181;50.974;18.244;2023-10-13T10:23:05;2.90;;;1.60;;
57345;SDS011;43181;50.974;18.244;2023-10-13T10:25:35;3.60;;;1.30;;
57345;SDS011;43181;50.974;18.244;2023-10-13T10:28:02;2.20;;;1.20;;
57345;SDS011;43181;50.974;18.244;2023-10-13T10:30:40;2.60;;;1.60;;
57345;SDS011;43181;50.974;18.244;2023-10-13T10:33:07;1.50;;;1.10;;
57345;SDS011;43181;50.974;18.244;2023-10-13T10:35:45;2.30;;;1.10;;
57345;SDS011;43181;50.974;18.244;2023-10-13T10:38:17;4.80;;;1.80;;
57345;SDS011;43181;50.974;18.244;2023-10-13T10:41:01;4.00;;;1.50;;
57345;SDS011;43181;50.974;18.244;2023-10-13T10:48:52;1.80;;;0.90;;
57345;SDS011;43181;50.974;18.244;2023-10-13T10:51:26;3.30;;;1.30;;
57345;SDS011;43181;50.974;18.244;2023-10-13T10:53:59;3.50;;;1.60;;
57345;SDS011;43181;50.974;18.244;2023-10-13T10:56:38;3.40;;;1.80;;
57345;SDS011;43181;50.974;18.244;2023-10-13T10:59:04;2.70;;;1.50;;
57345;SDS011;43181;50.974;18.244;2023-10-13T11:01:32;3.30;;;1.30;;
57345;SDS011;43181;50.974;18.244;2023-10-13T11:04:07;1.60;;;1.00;;
57345;SDS011;43181;50.974;18.244;2023-10-13T11:06:49;1.70;;;1.10;;
57345;SDS011;43181;50.974;18.244;2023-10-13T11:09:23;4.30;;;1.50;;
57345;SDS011;43181;50.974;18.244;2023-10-13T11:12:08;1.70;;;1.10;;
57345;SDS011;43181;50.974;18.244;2023-10-13T11:14:45;3.10;;;1.00;;
57345;SDS011;43181;50.974;18.244;2023-10-13T11:17:22;1.20;;;1.10;;
57345;SDS011;43181;50.974;18.244;2023-10-13T11:20:12;2.50;;;1.70;;
57345;SDS011;43181;50.974;18.244;2023-10-13T11:22:48;2.00;;;1.10;;
57345;SDS011;43181;50.974;18.244;2023-10-13T11:25:22;1.90;;;1.10;;
57345;SDS011;43181;50.974;18.244;2023-10-13T11:27:58;7.00;;;1.30;;
57345;SDS011;43181;50.974;18.244;2023-10-13T11:30:32;0.80;;;0.40;;
57345;SDS011;43181;50.974;18.244;2023-10-13T11:33:03;0.90;;;0.80;;
57345;SDS011;43181;50.974;18.244;2023-10-13T11:35:32;6.30;;;0.70;;
57345;SDS011;43181;50.974;18.244;2023-10-13T11:38:15;1.50;;;0.80;;
57345;SDS011;43181;50.974;18.244;2023-10-13T11:40:50;2.00;;;1.00;;
57345;SDS011;43181;50.974;18.244;2023-10-13T11:43:47;3.00;;;1.10;;
57345;SDS011;43181;50.974;18.244;2023-10-13T11:46:23;1.60;;;1.00;;
57345;SDS011;43181;50.974;18.244;2023-10-13T11:49:09;0.60;;;0.60;;
57345;SDS011;43181;50.974;18.244;2023-10-13T11:51:38;0.90;;;0.50;;
57345;SDS011;43181;50.974;18.244;2023-10-13T11:54:04;5.20;;;1.40;;
57345;SDS011;43181;50.974;18.244;2023-10-13T11:56:30;2.00;;;1.00;;
57345;SDS011;43181;50.974;18.244;2023-10-13T11:58:56;1.20;;;0.80;;
57345;SDS011;43181;50.974;18.244;2023-10-13T12:01:27;7.10;;;1.20;;
57345;SDS011;43181;50.974;18.244;2023-10-13T12:04:11;3.80;;;1.10;;
57345;SDS011;43181;50.974;18.244;2023-10-13T12:06:56;1.00;;;0.80;;
57345;SDS011;43181;50.974;18.244;2023-10-13T12:09:44;1.40;;;0.90;;
57345;SDS011;43181;50.974;18.244;2023-10-13T12:12:21;1.80;;;1.10;;
57345;SDS011;43181;50.974;18.244;2023-10-13T12:14:49;1.70;;;1.00;;
57345;SDS011;43181;50.974;18.244;2023-10-13T12:17:21;2.00;;;1.00;;
57345;SDS011;43181;50.974;18.244;2023-10-13T12:19:57;1.80;;;0.80;;
57345;SDS011;43181;50.974;18.244;2023-10-13T12:22:26;1.80;;;1.00;;
57345;SDS011;43181;50.974;18.244;2023-10-13T12:25:01;2.00;;;0.90;;
57345;SDS011;43181;50.974;18.244;2023-10-13T12:27:30;1.80;;;1.40;;
57345;SDS011;43181;50.974;18.244;2023-10-13T12:30:11;1.30;;;0.80;;
57345;SDS011;43181;50.974;18.244;2023-10-13T12:32:42;2.00;;;1.40;;
57345;SDS011;43181;50.974;18.244;2023-10-13T12:35:19;0.60;;;0.60;;
57345;SDS011;43181;50.974;18.244;2023-10-13T12:38:09;1.40;;;0.70;;
57345;SDS011;43181;50.974;18.244;2023-10-13T12:40:55;2.00;;;1.00;;
57345;SDS011;43181;50.974;18.244;2023-10-13T12:43:39;6.60;;;1.30;;
57345;SDS011;43181;50.974;18.244;2023-10-13T12:46:40;0.90;;;0.60;;
57345;SDS011;43181;50.974;18.244;2023-10-13T12:49:24;1.10;;;0.50;;
57345;SDS011;43181;50.974;18.244;2023-10-13T12:52:08;1.90;;;0.60;;
57345;SDS011;43181;50.974;18.244;2023-10-13T12:54:54;0.50;;;0.40;;
57345;SDS011;43181;50.974;18.244;2023-10-13T12:57:29;0.50;;;0.50;;
57345;SDS011;43181;50.974;18.244;2023-10-13T12:59:55;0.80;;;0.60;;
57345;SDS011;43181;50.974;18.244;2023-10-13T13:02:22;0.50;;;0.50;;
57345;SDS011;43181;50.974;18.244;2023-10-13T13:04:51;0.90;;;0.70;;
57345;SDS011;43181;50.974;18.244;2023-10-13T13:07:22;0.60;;;0.50;;
57345;SDS011;43181;50.974;18.244;2023-10-13T13:09:55;0.40;;;0.40;;
57345;SDS011;43181;50.974;18.244;2023-10-13T13:12:24;2.00;;;0.90;;
57345;SDS011;43181;50.974;18.244;2023-10-13T13:14:50;0.60;;;0.60;;
57345;SDS011;43181;50.974;18.244;2023-10-13T13:17:20;1.10;;;0.70;;
57345;SDS011;43181;50.974;18.244;2023-10-13T13:19:49;1.90;;;0.30;;
57345;SDS011;43181;50.974;18.244;2023-10-13T13:22:14;0.80;;;0.60;;
57345;SDS011;43181;50.974;18.244;2023-10-13T13:24:41;1.80;;;0.90;;
57345;SDS011;43181;50.974;18.244;2023-10-13T13:27:10;0.70;;;0.40;;
57345;SDS011;43181;50.974;18.244;2023-10-13T13:29:39;0.60;;;0.60;;
57345;SDS011;43181;50.974;18.244;2023-10-13T13:32:06;1.10;;;0.60;;
57345;SDS011;43181;50.974;18.244;2023-10-13T13:34:42;0.90;;;0.50;;
57345;SDS011;43181;50.974;18.244;2023-10-13T13:37:09;2.70;;;0.60;;
57345;SDS011;43181;50.974;18.244;2023-10-13T13:39:38;1.80;;;0.50;;
57345;SDS011;43181;50.974;18.244;2023-10-13T13:42:10;1.20;;;0.70;;
57345;SDS011;43181;50.974;18.244;2023-10-13T13:44:36;6.20;;;0.70;;
57345;SDS011;43181;50.974;18.244;2023-10-13T13:47:01;2.90;;;0.60;;
57345;SDS011;43181;50.974;18.244;2023-10-13T13:49:53;1.50;;;1.20;;
57345;SDS011;43181;50.974;18.244;2023-10-13T13:52:20;1.40;;;1.00;;
57345;SDS011;43181;50.974;18.244;2023-10-13T13:54:58;0.60;;;0.50;;
57345;SDS011;43181;50.974;18.244;2023-10-13T13:57:28;1.40;;;0.80;;
57345;SDS011;43181;50.974;18.244;2023-10-13T13:59:55;0.60;;;0.60;;
57345;SDS011;43181;50.974;18.244;2023-10-13T14:02:23;1.50;;;0.70;;
57345;SDS011;43181;50.974;18.244;2023-10-13T14:04:49;3.50;;;1.30;;
57345;SDS011;43181;50.974;18.244;2023-10-13T14:07:17;1.40;;;1.10;;
57345;SDS011;43181;50.974;18.244;2023-10-13T14:09:48;1.80;;;0.80;;
57345;SDS011;43181;50.974;18.244;2023-10-13T14:12:17;0.60;;;0.40;;
57345;SDS011;43181;50.974;18.244;2023-10-13T14:15:07;1.30;;;1.20;;
57345;SDS011;43181;50.974;18.244;2023-10-13T14:17:46;1.20;;;0.80;;
57345;SDS011;43181;50.974;18.244;2023-10-13T14:20:14;1.00;;;1.00;;
57345;SDS011;43181;50.974;18.244;2023-10-13T14:22:44;1.20;;;0.80;;
57345;SDS011;43181;50.974;18.244;2023-10-13T14:25:13;1.50;;;1.00;;
57345;SDS011;43181;50.974;18.244;2023-10-13T14:27:43;9.30;;;1.50;;
57345;SDS011;43181;50.974;18.244;2023-10-13T14:30:08;0.40;;;0.40;;
57345;SDS011;43181;50.974;18.244;2023-10-13T14:32:34;1.10;;;0.60;;
57345;SDS011;43181;50.974;18.244;2023-10-13T14:35:06;0.80;;;0.50;;
57345;SDS011;43181;50.974;18.244;2023-10-13T14:37:40;1.00;;;0.90;;
57345;SDS011;43181;50.974;18.244;2023-10-13T14:40:06;0.60;;;0.60;;
57345;SDS011;43181;50.974;18.244;2023-10-13T14:42:38;0.80;;;0.80;;
57345;SDS011;43181;50.974;18.244;2023-10-13T14:45:06;0.90;;;0.90;;
57345;SDS011;43181;50.974;18.244;2023-10-13T14:47:52;1.10;;;0.60;;
57345;SDS011;43181;50.974;18.244;2023-10-13T14:50:18;0.80;;;0.80;;
57345;SDS011;43181;50.974;18.244;2023-10-13T14:52:55;0.90;;;0.90;;
57345;SDS011;43181;50.974;18.244;2023-10-13T14:55:22;0.40;;;0.30;;
57345;SDS011;43181;50.974;18.244;2023-10-13T14:58:03;1.80;;;0.90;;
57345;SDS011;43181;50.974;18.244;2023-10-13T15:00:30;0.50;;;0.40;;
57345;SDS011;43181;50.974;18.244;2023-10-13T15:02:57;1.50;;;1.10;;
57345;SDS011;43181;50.974;18.244;2023-10-13T15:05:26;1.70;;;0.80;;
57345;SDS011;43181;50.974;18.244;2023-10-13T15:07:55;2.00;;;1.00;;
57345;SDS011;43181;50.974;18.244;2023-10-13T15:10:21;0.30;;;0.30;;
57345;SDS011;43181;50.974;18.244;2023-10-13T15:12:46;2.00;;;0.70;;
57345;SDS011;43181;50.974;18.244;2023-10-13T15:15:14;2.10;;;1.00;;
57345;SDS011;43181;50.974;18.244;2023-10-13T15:17:50;0.80;;;0.80;;
57345;SDS011;43181;50.974;18.244;2023-10-13T15:20:16;1.20;;;0.80;;
57345;SDS011;43181;50.974;18.244;2023-10-13T15:22:43;1.10;;;0.70;;
57345;SDS011;43181;50.974;18.244;2023-10-13T15:25:09;1.70;;;1.10;;
57345;SDS011;43181;50.974;18.244;2023-10-13T15:27:48;1.10;;;0.90;;
57345;SDS011;43181;50.974;18.244;2023-10-13T15:30:23;1.20;;;0.70;;
57345;SDS011;43181;50.974;18.244;2023-10-13T15:32:51;0.60;;;0.60;;
57345;SDS011;43181;50.974;18.244;2023-10-13T15:35:17;1.00;;;0.90;;
57345;SDS011;43181;50.974;18.244;2023-10-13T15:37:43;4.80;;;0.70;;